sensor_id;sensor_type;location;lat;lon;timestamp;temperature;humidity
13521;DHT22;6832;51.186;3.236;2022-08-20T00:01:36;21.90;76.30
13521;DHT22;6832;51.186;3.236;2022-08-20T00:04:03;21.90;76.30
13521;DHT22;6832;51.186;3.236;2022-08-20T00:06:32;21.90;76.30
13521;DHT22;6832;51.186;3.236;2022-08-20T00:09:01;21.90;76.80
13521;DHT22;6832;51.186;3.236;2022-08-20T00:11:32;21.80;76.90
13521;DHT22;6832;51.186;3.236;2022-08-20T00:14:01;21.80;76.70
13521;DHT22;6832;51.186;3.236;2022-08-20T00:16:32;21.80;76.70
13521;DHT22;6832;51.186;3.236;2022-08-20T00:19:05;21.80;76.90
13521;DHT22;6832;51.186;3.236;2022-08-20T00:21:33;21.70;76.80
13521;DHT22;6832;51.186;3.236;2022-08-20T00:24:02;21.70;76.80
13521;DHT22;6832;51.186;3.236;2022-08-20T00:26:29;21.70;77.10
13521;DHT22;6832;51.186;3.236;2022-08-20T00:28:56;21.70;77.30
13521;DHT22;6832;51.186;3.236;2022-08-20T00:31:27;21.70;77.60
13521;DHT22;6832;51.186;3.236;2022-08-20T00:33:54;21.60;77.70
13521;DHT22;6832;51.186;3.236;2022-08-20T00:36:23;21.60;78.10
13521;DHT22;6832;51.186;3.236;2022-08-20T00:38:53;21.60;77.60
13521;DHT22;6832;51.186;3.236;2022-08-20T00:41:26;21.60;77.80
13521;DHT22;6832;51.186;3.236;2022-08-20T00:44:06;21.50;78.00
13521;DHT22;6832;51.186;3.236;2022-08-20T00:46:34;21.50;78.60
13521;DHT22;6832;51.186;3.236;2022-08-20T00:49:03;21.50;78.10
13521;DHT22;6832;51.186;3.236;2022-08-20T00:51:35;21.50;78.10
13521;DHT22;6832;51.186;3.236;2022-08-20T00:54:06;21.50;78.30
13521;DHT22;6832;51.186;3.236;2022-08-20T00:56:41;21.40;78.00
13521;DHT22;6832;51.186;3.236;2022-08-20T00:59:15;21.40;77.80
13521;DHT22;6832;51.186;3.236;2022-08-20T01:01:45;21.40;78.10
13521;DHT22;6832;51.186;3.236;2022-08-20T01:04:13;21.40;77.70
13521;DHT22;6832;51.186;3.236;2022-08-20T01:06:43;21.40;77.50
13521;DHT22;6832;51.186;3.236;2022-08-20T01:19:01;21.30;77.80
13521;DHT22;6832;51.186;3.236;2022-08-20T01:21:30;21.30;77.70
13521;DHT22;6832;51.186;3.236;2022-08-20T01:24:04;21.20;77.30
13521;DHT22;6832;51.186;3.236;2022-08-20T01:26:55;21.20;77.40
13521;DHT22;6832;51.186;3.236;2022-08-20T01:29:25;21.20;77.60
13521;DHT22;6832;51.186;3.236;2022-08-20T01:31:54;21.20;77.70
13521;DHT22;6832;51.186;3.236;2022-08-20T01:34:26;21.10;77.40
13521;DHT22;6832;51.186;3.236;2022-08-20T01:36:56;21.10;77.50
13521;DHT22;6832;51.186;3.236;2022-08-20T01:39:28;21.10;77.50
13521;DHT22;6832;51.186;3.236;2022-08-20T01:42:04;21.00;77.40
13521;DHT22;6832;51.186;3.236;2022-08-20T01:44:36;21.00;77.50
13521;DHT22;6832;51.186;3.236;2022-08-20T01:47:11;21.00;78.10
13521;DHT22;6832;51.186;3.236;2022-08-20T01:49:41;21.00;78.10
13521;DHT22;6832;51.186;3.236;2022-08-20T01:52:16;20.90;78.00
13521;DHT22;6832;51.186;3.236;2022-08-20T01:54:47;20.90;78.50
13521;DHT22;6832;51.186;3.236;2022-08-20T01:57:19;20.90;78.00
13521;DHT22;6832;51.186;3.236;2022-08-20T01:59:52;20.90;78.90
13521;DHT22;6832;51.186;3.236;2022-08-20T02:02:22;20.90;78.80
13521;DHT22;6832;51.186;3.236;2022-08-20T02:04:51;20.90;78.90
13521;DHT22;6832;51.186;3.236;2022-08-20T02:07:21;20.80;78.90
13521;DHT22;6832;51.186;3.236;2022-08-20T02:09:55;20.80;79.10
13521;DHT22;6832;51.186;3.236;2022-08-20T02:12:26;20.80;79.20
13521;DHT22;6832;51.186;3.236;2022-08-20T02:14:54;20.80;78.50
13521;DHT22;6832;51.186;3.236;2022-08-20T02:17:23;20.80;78.50
13521;DHT22;6832;51.186;3.236;2022-08-20T02:19:53;20.70;78.10
13521;DHT22;6832;51.186;3.236;2022-08-20T02:22:26;20.70;78.00
13521;DHT22;6832;51.186;3.236;2022-08-20T02:24:55;20.70;78.20
13521;DHT22;6832;51.186;3.236;2022-08-20T02:27:25;20.70;78.20
13521;DHT22;6832;51.186;3.236;2022-08-20T02:29:58;20.70;78.30
13521;DHT22;6832;51.186;3.236;2022-08-20T02:32:29;20.60;78.80
13521;DHT22;6832;51.186;3.236;2022-08-20T02:34:58;20.60;78.60
13521;DHT22;6832;51.186;3.236;2022-08-20T02:37:27;20.60;78.80
13521;DHT22;6832;51.186;3.236;2022-08-20T02:40:03;20.50;78.80
13521;DHT22;6832;51.186;3.236;2022-08-20T02:42:44;20.50;79.40
13521;DHT22;6832;51.186;3.236;2022-08-20T02:45:15;20.50;79.30
13521;DHT22;6832;51.186;3.236;2022-08-20T02:47:43;20.50;79.10
13521;DHT22;6832;51.186;3.236;2022-08-20T02:50:12;20.40;79.00
13521;DHT22;6832;51.186;3.236;2022-08-20T02:52:39;20.40;79.20
13521;DHT22;6832;51.186;3.236;2022-08-20T02:55:08;20.40;79.20
13521;DHT22;6832;51.186;3.236;2022-08-20T02:57:38;20.40;79.40
13521;DHT22;6832;51.186;3.236;2022-08-20T03:00:11;20.30;79.60
13521;DHT22;6832;51.186;3.236;2022-08-20T03:02:39;20.30;80.10
13521;DHT22;6832;51.186;3.236;2022-08-20T03:05:08;20.30;79.70
13521;DHT22;6832;51.186;3.236;2022-08-20T03:07:40;20.30;80.00
13521;DHT22;6832;51.186;3.236;2022-08-20T03:10:08;20.30;79.90
13521;DHT22;6832;51.186;3.236;2022-08-20T03:12:36;20.20;79.90
13521;DHT22;6832;51.186;3.236;2022-08-20T03:15:09;20.20;80.10
13521;DHT22;6832;51.186;3.236;2022-08-20T03:17:37;20.20;80.30
13521;DHT22;6832;51.186;3.236;2022-08-20T03:20:08;20.20;80.00
13521;DHT22;6832;51.186;3.236;2022-08-20T03:22:35;20.20;80.00
13521;DHT22;6832;51.186;3.236;2022-08-20T03:25:06;20.20;80.00
13521;DHT22;6832;51.186;3.236;2022-08-20T03:27:33;20.10;79.90
13521;DHT22;6832;51.186;3.236;2022-08-20T03:30:07;20.20;79.90
13521;DHT22;6832;51.186;3.236;2022-08-20T03:32:37;20.10;80.20
13521;DHT22;6832;51.186;3.236;2022-08-20T03:35:07;20.10;80.20
13521;DHT22;6832;51.186;3.236;2022-08-20T03:37:36;20.10;80.30
13521;DHT22;6832;51.186;3.236;2022-08-20T03:40:05;20.10;80.40
13521;DHT22;6832;51.186;3.236;2022-08-20T03:42:33;20.00;80.50
13521;DHT22;6832;51.186;3.236;2022-08-20T03:45:00;20.00;80.40
13521;DHT22;6832;51.186;3.236;2022-08-20T03:47:29;20.00;80.50
13521;DHT22;6832;51.186;3.236;2022-08-20T03:49:57;20.00;80.70
13521;DHT22;6832;51.186;3.236;2022-08-20T03:52:27;20.00;80.80
13521;DHT22;6832;51.186;3.236;2022-08-20T03:54:57;20.00;80.90
13521;DHT22;6832;51.186;3.236;2022-08-20T03:57:27;20.00;81.00
13521;DHT22;6832;51.186;3.236;2022-08-20T03:59:55;20.00;81.20
13521;DHT22;6832;51.186;3.236;2022-08-20T04:02:23;19.90;80.90
13521;DHT22;6832;51.186;3.236;2022-08-20T04:04:53;19.90;80.90
13521;DHT22;6832;51.186;3.236;2022-08-20T04:07:23;19.90;81.20
13521;DHT22;6832;51.186;3.236;2022-08-20T04:09:53;19.90;81.20
13521;DHT22;6832;51.186;3.236;2022-08-20T04:12:24;19.80;81.20
13521;DHT22;6832;51.186;3.236;2022-08-20T04:14:51;19.90;81.60
13521;DHT22;6832;51.186;3.236;2022-08-20T04:17:20;19.90;81.70
13521;DHT22;6832;51.186;3.236;2022-08-20T04:19:52;19.80;81.90
13521;DHT22;6832;51.186;3.236;2022-08-20T04:22:21;19.80;82.20
13521;DHT22;6832;51.186;3.236;2022-08-20T04:24:49;19.80;82.20
13521;DHT22;6832;51.186;3.236;2022-08-20T04:27:17;19.80;82.30
13521;DHT22;6832;51.186;3.236;2022-08-20T04:29:44;19.80;82.70
13521;DHT22;6832;51.186;3.236;2022-08-20T04:32:14;19.80;82.40
13521;DHT22;6832;51.186;3.236;2022-08-20T04:34:41;19.80;83.00
13521;DHT22;6832;51.186;3.236;2022-08-20T04:37:10;19.80;82.50
13521;DHT22;6832;51.186;3.236;2022-08-20T04:39:38;19.80;83.10
13521;DHT22;6832;51.186;3.236;2022-08-20T04:42:05;19.70;82.90
13521;DHT22;6832;51.186;3.236;2022-08-20T04:44:33;19.70;82.90
13521;DHT22;6832;51.186;3.236;2022-08-20T04:47:00;19.70;82.90
13521;DHT22;6832;51.186;3.236;2022-08-20T04:49:27;19.70;83.00
13521;DHT22;6832;51.186;3.236;2022-08-20T04:51:55;19.70;83.10
13521;DHT22;6832;51.186;3.236;2022-08-20T04:54:26;19.70;83.30
13521;DHT22;6832;51.186;3.236;2022-08-20T04:56:55;19.70;83.60
13521;DHT22;6832;51.186;3.236;2022-08-20T04:59:32;19.70;83.60
13521;DHT22;6832;51.186;3.236;2022-08-20T05:02:01;19.70;84.20
13521;DHT22;6832;51.186;3.236;2022-08-20T05:04:28;19.70;84.00
13521;DHT22;6832;51.186;3.236;2022-08-20T05:06:58;19.70;83.80
13521;DHT22;6832;51.186;3.236;2022-08-20T05:09:27;19.70;84.40
13521;DHT22;6832;51.186;3.236;2022-08-20T05:12:00;19.60;84.50
13521;DHT22;6832;51.186;3.236;2022-08-20T05:14:28;19.60;84.70
13521;DHT22;6832;51.186;3.236;2022-08-20T05:16:57;19.60;84.40
13521;DHT22;6832;51.186;3.236;2022-08-20T05:19:33;19.60;84.70
13521;DHT22;6832;51.186;3.236;2022-08-20T05:22:06;19.60;85.10
13521;DHT22;6832;51.186;3.236;2022-08-20T05:25:09;19.60;85.30
13521;DHT22;6832;51.186;3.236;2022-08-20T05:27:42;19.60;85.80
13521;DHT22;6832;51.186;3.236;2022-08-20T05:30:28;19.60;85.30
13521;DHT22;6832;51.186;3.236;2022-08-20T05:32:59;19.70;85.70
13521;DHT22;6832;51.186;3.236;2022-08-20T05:35:30;19.60;85.50
13521;DHT22;6832;51.186;3.236;2022-08-20T05:38:14;19.60;85.50
13521;DHT22;6832;51.186;3.236;2022-08-20T05:41:11;19.70;86.50
13521;DHT22;6832;51.186;3.236;2022-08-20T05:43:40;19.70;86.70
13521;DHT22;6832;51.186;3.236;2022-08-20T05:46:21;19.70;86.10
13521;DHT22;6832;51.186;3.236;2022-08-20T05:48:51;19.70;86.00
13521;DHT22;6832;51.186;3.236;2022-08-20T05:51:19;19.70;86.50
13521;DHT22;6832;51.186;3.236;2022-08-20T05:53:56;19.70;86.20
13521;DHT22;6832;51.186;3.236;2022-08-20T05:56:33;19.80;86.70
13521;DHT22;6832;51.186;3.236;2022-08-20T05:59:06;19.70;86.90
13521;DHT22;6832;51.186;3.236;2022-08-20T06:01:40;19.80;86.60
13521;DHT22;6832;51.186;3.236;2022-08-20T06:04:10;19.80;87.00
13521;DHT22;6832;51.186;3.236;2022-08-20T06:06:59;19.80;86.90
13521;DHT22;6832;51.186;3.236;2022-08-20T06:09:45;19.80;87.00
13521;DHT22;6832;51.186;3.236;2022-08-20T06:12:24;19.90;87.70
13521;DHT22;6832;51.186;3.236;2022-08-20T06:14:53;19.90;87.10
13521;DHT22;6832;51.186;3.236;2022-08-20T06:21:01;20.00;87.70
13521;DHT22;6832;51.186;3.236;2022-08-20T06:23:46;20.00;86.70
13521;DHT22;6832;51.186;3.236;2022-08-20T06:26:17;20.00;87.40
13521;DHT22;6832;51.186;3.236;2022-08-20T06:29:32;20.00;87.20
13521;DHT22;6832;51.186;3.236;2022-08-20T06:32:09;20.00;88.00
13521;DHT22;6832;51.186;3.236;2022-08-20T06:34:45;20.10;88.00
13521;DHT22;6832;51.186;3.236;2022-08-20T06:40:22;20.10;88.20
13521;DHT22;6832;51.186;3.236;2022-08-20T06:43:03;20.20;88.10
13521;DHT22;6832;51.186;3.236;2022-08-20T06:45:44;20.20;87.70
13521;DHT22;6832;51.186;3.236;2022-08-20T06:48:21;20.30;88.30
13521;DHT22;6832;51.186;3.236;2022-08-20T06:51:11;20.30;88.20
13521;DHT22;6832;51.186;3.236;2022-08-20T07:00:44;20.50;88.30
13521;DHT22;6832;51.186;3.236;2022-08-20T07:18:04;20.80;87.70
13521;DHT22;6832;51.186;3.236;2022-08-20T07:23:53;21.00;87.40
13521;DHT22;6832;51.186;3.236;2022-08-20T07:27:06;21.10;87.70
13521;DHT22;6832;51.186;3.236;2022-08-20T07:29:37;21.20;87.80
13521;DHT22;6832;51.186;3.236;2022-08-20T07:32:33;21.30;87.20
13521;DHT22;6832;51.186;3.236;2022-08-20T07:35:43;21.40;86.90
13521;DHT22;6832;51.186;3.236;2022-08-20T07:38:24;21.40;86.20
13521;DHT22;6832;51.186;3.236;2022-08-20T07:40:59;21.60;85.80
13521;DHT22;6832;51.186;3.236;2022-08-20T07:43:29;21.60;85.10
13521;DHT22;6832;51.186;3.236;2022-08-20T07:46:08;21.80;84.90
13521;DHT22;6832;51.186;3.236;2022-08-20T07:48:37;21.80;84.40
13521;DHT22;6832;51.186;3.236;2022-08-20T07:51:11;21.90;84.50
13521;DHT22;6832;51.186;3.236;2022-08-20T07:53:39;21.90;84.40
13521;DHT22;6832;51.186;3.236;2022-08-20T07:56:32;22.00;84.60
13521;DHT22;6832;51.186;3.236;2022-08-20T07:59:18;22.10;84.50
13521;DHT22;6832;51.186;3.236;2022-08-20T08:01:53;22.20;84.20
13521;DHT22;6832;51.186;3.236;2022-08-20T08:04:21;22.30;83.60
13521;DHT22;6832;51.186;3.236;2022-08-20T08:06:51;22.30;83.10
13521;DHT22;6832;51.186;3.236;2022-08-20T08:09:20;22.40;82.70
13521;DHT22;6832;51.186;3.236;2022-08-20T08:11:49;22.40;83.10
13521;DHT22;6832;51.186;3.236;2022-08-20T08:14:24;22.50;82.50
13521;DHT22;6832;51.186;3.236;2022-08-20T08:16:55;22.60;82.10
13521;DHT22;6832;51.186;3.236;2022-08-20T08:22:23;22.70;82.10
13521;DHT22;6832;51.186;3.236;2022-08-20T08:24:53;22.70;79.90
13521;DHT22;6832;51.186;3.236;2022-08-20T08:27:29;22.80;78.60
13521;DHT22;6832;51.186;3.236;2022-08-20T08:30:26;22.80;76.40
13521;DHT22;6832;51.186;3.236;2022-08-20T08:36:41;23.00;74.70
13521;DHT22;6832;51.186;3.236;2022-08-20T08:39:21;23.10;75.20
13521;DHT22;6832;51.186;3.236;2022-08-20T08:42:14;23.10;73.60
13521;DHT22;6832;51.186;3.236;2022-08-20T08:44:59;23.20;72.30
13521;DHT22;6832;51.186;3.236;2022-08-20T08:47:44;23.20;71.70
13521;DHT22;6832;51.186;3.236;2022-08-20T08:50:22;23.30;71.60
13521;DHT22;6832;51.186;3.236;2022-08-20T08:52:53;23.30;69.80
13521;DHT22;6832;51.186;3.236;2022-08-20T08:55:27;23.40;70.30
13521;DHT22;6832;51.186;3.236;2022-08-20T08:58:02;23.40;68.90
13521;DHT22;6832;51.186;3.236;2022-08-20T09:03:08;23.70;68.90
13521;DHT22;6832;51.186;3.236;2022-08-20T09:05:48;23.80;68.50
13521;DHT22;6832;51.186;3.236;2022-08-20T09:08:20;24.00;67.80
13521;DHT22;6832;51.186;3.236;2022-08-20T09:11:00;24.10;68.20
13521;DHT22;6832;51.186;3.236;2022-08-20T09:13:34;24.20;67.40
13521;DHT22;6832;51.186;3.236;2022-08-20T09:16:05;24.40;67.60
13521;DHT22;6832;51.186;3.236;2022-08-20T09:18:33;24.50;68.60
13521;DHT22;6832;51.186;3.236;2022-08-20T09:21:04;24.50;68.50
13521;DHT22;6832;51.186;3.236;2022-08-20T09:23:49;24.60;67.50
13521;DHT22;6832;51.186;3.236;2022-08-20T09:29:31;24.80;66.30
13521;DHT22;6832;51.186;3.236;2022-08-20T09:32:07;24.80;65.30
13521;DHT22;6832;51.186;3.236;2022-08-20T09:34:36;24.90;65.10
13521;DHT22;6832;51.186;3.236;2022-08-20T09:37:05;24.90;65.30
13521;DHT22;6832;51.186;3.236;2022-08-20T09:39:38;25.00;66.20
13521;DHT22;6832;51.186;3.236;2022-08-20T09:42:10;25.00;63.40
13521;DHT22;6832;51.186;3.236;2022-08-20T09:44:40;25.00;64.10
13521;DHT22;6832;51.186;3.236;2022-08-20T09:47:33;25.10;63.30
13521;DHT22;6832;51.186;3.236;2022-08-20T09:50:15;25.20;62.00
13521;DHT22;6832;51.186;3.236;2022-08-20T09:52:51;25.20;62.90
13521;DHT22;6832;51.186;3.236;2022-08-20T09:55:25;25.30;62.70
13521;DHT22;6832;51.186;3.236;2022-08-20T09:57:55;25.30;62.20
13521;DHT22;6832;51.186;3.236;2022-08-20T10:00:24;25.40;63.00
13521;DHT22;6832;51.186;3.236;2022-08-20T10:02:52;25.40;62.90
13521;DHT22;6832;51.186;3.236;2022-08-20T10:05:19;25.50;62.10
13521;DHT22;6832;51.186;3.236;2022-08-20T10:07:48;25.60;61.50
13521;DHT22;6832;51.186;3.236;2022-08-20T10:10:15;25.80;61.80
13521;DHT22;6832;51.186;3.236;2022-08-20T10:12:43;25.90;61.60
13521;DHT22;6832;51.186;3.236;2022-08-20T10:15:12;26.00;62.10
13521;DHT22;6832;51.186;3.236;2022-08-20T10:17:41;26.10;60.60
13521;DHT22;6832;51.186;3.236;2022-08-20T10:20:12;26.20;60.10
13521;DHT22;6832;51.186;3.236;2022-08-20T10:22:42;26.30;60.40
13521;DHT22;6832;51.186;3.236;2022-08-20T10:25:14;26.40;59.40
13521;DHT22;6832;51.186;3.236;2022-08-20T10:27:43;26.60;59.30
13521;DHT22;6832;51.186;3.236;2022-08-20T10:30:26;26.70;59.00
13521;DHT22;6832;51.186;3.236;2022-08-20T10:33:18;26.80;56.80
13521;DHT22;6832;51.186;3.236;2022-08-20T10:35:49;26.90;56.00
13521;DHT22;6832;51.186;3.236;2022-08-20T10:38:20;27.00;56.70
13521;DHT22;6832;51.186;3.236;2022-08-20T10:40:49;27.00;56.80
13521;DHT22;6832;51.186;3.236;2022-08-20T10:43:23;27.00;56.80
13521;DHT22;6832;51.186;3.236;2022-08-20T10:45:56;27.10;56.50
13521;DHT22;6832;51.186;3.236;2022-08-20T10:48:31;27.20;56.90
13521;DHT22;6832;51.186;3.236;2022-08-20T10:51:04;27.30;55.70
13521;DHT22;6832;51.186;3.236;2022-08-20T10:56:32;27.40;55.40
13521;DHT22;6832;51.186;3.236;2022-08-20T10:59:02;27.50;55.40
13521;DHT22;6832;51.186;3.236;2022-08-20T11:01:36;27.60;55.00
13521;DHT22;6832;51.186;3.236;2022-08-20T11:04:21;27.70;54.60
13521;DHT22;6832;51.186;3.236;2022-08-20T11:06:50;27.80;54.20
13521;DHT22;6832;51.186;3.236;2022-08-20T11:12:33;27.90;53.30
13521;DHT22;6832;51.186;3.236;2022-08-20T11:15:03;27.90;52.90
13521;DHT22;6832;51.186;3.236;2022-08-20T11:17:35;27.90;53.50
13521;DHT22;6832;51.186;3.236;2022-08-20T11:20:09;27.90;53.10
13521;DHT22;6832;51.186;3.236;2022-08-20T11:22:50;27.90;51.80
13521;DHT22;6832;51.186;3.236;2022-08-20T11:25:20;27.90;52.60
13521;DHT22;6832;51.186;3.236;2022-08-20T11:27:59;27.80;53.10
13521;DHT22;6832;51.186;3.236;2022-08-20T11:30:38;27.80;53.10
13521;DHT22;6832;51.186;3.236;2022-08-20T11:33:06;27.80;52.50
13521;DHT22;6832;51.186;3.236;2022-08-20T11:35:38;27.90;53.40
13521;DHT22;6832;51.186;3.236;2022-08-20T11:38:06;28.00;52.60
13521;DHT22;6832;51.186;3.236;2022-08-20T11:40:35;28.00;52.50
13521;DHT22;6832;51.186;3.236;2022-08-20T11:43:04;28.00;52.60
13521;DHT22;6832;51.186;3.236;2022-08-20T11:45:53;28.20;52.30
13521;DHT22;6832;51.186;3.236;2022-08-20T11:48:30;28.30;51.70
13521;DHT22;6832;51.186;3.236;2022-08-20T11:50:59;28.30;52.20
13521;DHT22;6832;51.186;3.236;2022-08-20T11:53:42;28.50;52.80
13521;DHT22;6832;51.186;3.236;2022-08-20T11:56:30;28.60;52.20
13521;DHT22;6832;51.186;3.236;2022-08-20T11:59:09;28.80;52.60
13521;DHT22;6832;51.186;3.236;2022-08-20T12:02:22;28.90;51.00
13521;DHT22;6832;51.186;3.236;2022-08-20T12:05:08;29.10;51.00
13521;DHT22;6832;51.186;3.236;2022-08-20T12:08:09;29.20;51.80
13521;DHT22;6832;51.186;3.236;2022-08-20T12:13:49;29.30;51.40
13521;DHT22;6832;51.186;3.236;2022-08-20T12:16:17;29.40;51.50
13521;DHT22;6832;51.186;3.236;2022-08-20T12:18:45;29.40;50.40
13521;DHT22;6832;51.186;3.236;2022-08-20T12:21:19;29.40;49.90
13521;DHT22;6832;51.186;3.236;2022-08-20T12:23:52;29.40;49.70
13521;DHT22;6832;51.186;3.236;2022-08-20T12:26:30;29.50;48.90
13521;DHT22;6832;51.186;3.236;2022-08-20T12:29:06;29.40;48.60
13521;DHT22;6832;51.186;3.236;2022-08-20T12:31:35;29.30;48.70
13521;DHT22;6832;51.186;3.236;2022-08-20T12:34:16;29.30;49.50
13521;DHT22;6832;51.186;3.236;2022-08-20T12:40:12;29.10;48.90
13521;DHT22;6832;51.186;3.236;2022-08-20T12:42:44;29.00;48.80
13521;DHT22;6832;51.186;3.236;2022-08-20T12:45:14;29.00;49.30
13521;DHT22;6832;51.186;3.236;2022-08-20T12:47:45;28.90;48.80
13521;DHT22;6832;51.186;3.236;2022-08-20T12:50:23;28.80;49.00
13521;DHT22;6832;51.186;3.236;2022-08-20T12:52:51;28.80;48.50
13521;DHT22;6832;51.186;3.236;2022-08-20T12:55:26;28.80;49.60
13521;DHT22;6832;51.186;3.236;2022-08-20T12:57:57;28.80;48.40
13521;DHT22;6832;51.186;3.236;2022-08-20T13:00:33;28.70;48.80
13521;DHT22;6832;51.186;3.236;2022-08-20T13:03:07;28.80;48.40
13521;DHT22;6832;51.186;3.236;2022-08-20T13:05:41;28.80;48.10
13521;DHT22;6832;51.186;3.236;2022-08-20T13:08:09;28.90;48.50
13521;DHT22;6832;51.186;3.236;2022-08-20T13:11:05;28.90;48.70
13521;DHT22;6832;51.186;3.236;2022-08-20T13:13:41;29.00;48.10
13521;DHT22;6832;51.186;3.236;2022-08-20T13:16:12;29.10;49.50
13521;DHT22;6832;51.186;3.236;2022-08-20T13:18:39;29.20;48.70
13521;DHT22;6832;51.186;3.236;2022-08-20T13:21:13;29.30;48.70
13521;DHT22;6832;51.186;3.236;2022-08-20T13:23:42;29.30;48.40
13521;DHT22;6832;51.186;3.236;2022-08-20T13:26:13;29.50;48.30
13521;DHT22;6832;51.186;3.236;2022-08-20T13:28:40;29.50;48.20
13521;DHT22;6832;51.186;3.236;2022-08-20T13:31:09;29.70;48.10
13521;DHT22;6832;51.186;3.236;2022-08-20T13:33:39;29.70;47.80
13521;DHT22;6832;51.186;3.236;2022-08-20T13:36:07;29.80;47.60
13521;DHT22;6832;51.186;3.236;2022-08-20T13:38:38;29.80;47.40
13521;DHT22;6832;51.186;3.236;2022-08-20T13:44:15;29.90;47.10
13521;DHT22;6832;51.186;3.236;2022-08-20T13:46:48;30.00;47.30
13521;DHT22;6832;51.186;3.236;2022-08-20T13:49:16;30.00;47.30
13521;DHT22;6832;51.186;3.236;2022-08-20T13:51:55;30.00;47.20
13521;DHT22;6832;51.186;3.236;2022-08-20T13:54:23;30.10;47.20
13521;DHT22;6832;51.186;3.236;2022-08-20T13:56:51;30.10;47.10
13521;DHT22;6832;51.186;3.236;2022-08-20T13:59:24;30.20;46.90
13521;DHT22;6832;51.186;3.236;2022-08-20T14:02:03;30.20;46.40
13521;DHT22;6832;51.186;3.236;2022-08-20T14:04:45;30.30;46.10
13521;DHT22;6832;51.186;3.236;2022-08-20T14:07:15;30.40;46.60
13521;DHT22;6832;51.186;3.236;2022-08-20T14:09:44;30.40;46.10
13521;DHT22;6832;51.186;3.236;2022-08-20T14:12:26;30.40;46.40
13521;DHT22;6832;51.186;3.236;2022-08-20T14:15:11;30.40;46.10
13521;DHT22;6832;51.186;3.236;2022-08-20T14:17:40;30.30;45.70
13521;DHT22;6832;51.186;3.236;2022-08-20T14:20:11;30.30;46.50
13521;DHT22;6832;51.186;3.236;2022-08-20T14:23:03;30.30;46.10
13521;DHT22;6832;51.186;3.236;2022-08-20T14:25:31;30.30;45.70
13521;DHT22;6832;51.186;3.236;2022-08-20T14:28:10;30.30;46.00
13521;DHT22;6832;51.186;3.236;2022-08-20T14:30:38;30.30;45.70
13521;DHT22;6832;51.186;3.236;2022-08-20T14:33:09;30.30;46.10
13521;DHT22;6832;51.186;3.236;2022-08-20T14:35:40;30.40;45.50
13521;DHT22;6832;51.186;3.236;2022-08-20T14:38:08;30.40;46.00
13521;DHT22;6832;51.186;3.236;2022-08-20T14:40:42;30.40;45.40
13521;DHT22;6832;51.186;3.236;2022-08-20T14:43:27;30.40;45.30
13521;DHT22;6832;51.186;3.236;2022-08-20T14:45:58;30.40;44.70
13521;DHT22;6832;51.186;3.236;2022-08-20T14:48:26;30.40;45.30
13521;DHT22;6832;51.186;3.236;2022-08-20T14:50:56;30.40;45.40
13521;DHT22;6832;51.186;3.236;2022-08-20T14:53:27;30.40;44.70
13521;DHT22;6832;51.186;3.236;2022-08-20T14:55:55;30.40;44.70
13521;DHT22;6832;51.186;3.236;2022-08-20T14:58:32;30.30;44.70
13521;DHT22;6832;51.186;3.236;2022-08-20T15:01:03;30.30;44.50
13521;DHT22;6832;51.186;3.236;2022-08-20T15:03:30;30.30;44.20
13521;DHT22;6832;51.186;3.236;2022-08-20T15:06:06;30.20;44.00
13521;DHT22;6832;51.186;3.236;2022-08-20T15:08:33;30.10;43.30
13521;DHT22;6832;51.186;3.236;2022-08-20T15:11:01;30.10;43.80
13521;DHT22;6832;51.186;3.236;2022-08-20T15:13:42;30.00;44.20
13521;DHT22;6832;51.186;3.236;2022-08-20T15:16:12;29.90;44.60
13521;DHT22;6832;51.186;3.236;2022-08-20T15:19:05;29.80;44.40
13521;DHT22;6832;51.186;3.236;2022-08-20T15:21:48;29.70;43.60
13521;DHT22;6832;51.186;3.236;2022-08-20T15:24:16;29.60;44.20
13521;DHT22;6832;51.186;3.236;2022-08-20T15:26:44;29.60;44.20
13521;DHT22;6832;51.186;3.236;2022-08-20T15:29:15;29.50;44.20
13521;DHT22;6832;51.186;3.236;2022-08-20T15:32:10;29.40;44.10
13521;DHT22;6832;51.186;3.236;2022-08-20T15:34:43;29.30;44.00
13521;DHT22;6832;51.186;3.236;2022-08-20T15:37:17;29.30;44.60
13521;DHT22;6832;51.186;3.236;2022-08-20T15:40:03;29.20;45.60
13521;DHT22;6832;51.186;3.236;2022-08-20T15:42:32;29.20;44.90
13521;DHT22;6832;51.186;3.236;2022-08-20T15:45:04;29.10;45.30
13521;DHT22;6832;51.186;3.236;2022-08-20T15:47:51;29.00;45.10
13521;DHT22;6832;51.186;3.236;2022-08-20T15:50:39;29.00;45.00
13521;DHT22;6832;51.186;3.236;2022-08-20T15:53:31;28.90;45.00
13521;DHT22;6832;51.186;3.236;2022-08-20T15:56:24;28.90;45.10
13521;DHT22;6832;51.186;3.236;2022-08-20T16:12:26;28.70;45.30
13521;DHT22;6832;51.186;3.236;2022-08-20T16:15:01;28.70;45.60
13521;DHT22;6832;51.186;3.236;2022-08-20T16:17:57;28.70;45.50
13521;DHT22;6832;51.186;3.236;2022-08-20T16:20:45;28.70;45.60
13521;DHT22;6832;51.186;3.236;2022-08-20T16:23:16;28.60;45.70
13521;DHT22;6832;51.186;3.236;2022-08-20T16:28:39;28.60;46.00
13521;DHT22;6832;51.186;3.236;2022-08-20T16:31:27;28.60;46.20
13521;DHT22;6832;51.186;3.236;2022-08-20T16:34:15;28.60;46.30
13521;DHT22;6832;51.186;3.236;2022-08-20T16:37:01;28.60;46.50
13521;DHT22;6832;51.186;3.236;2022-08-20T16:39:44;28.60;46.30
13521;DHT22;6832;51.186;3.236;2022-08-20T16:42:16;28.60;46.50
13521;DHT22;6832;51.186;3.236;2022-08-20T16:45:04;28.60;46.60
13521;DHT22;6832;51.186;3.236;2022-08-20T16:48:11;28.70;46.80
13521;DHT22;6832;51.186;3.236;2022-08-20T16:50:51;28.70;47.10
13521;DHT22;6832;51.186;3.236;2022-08-20T16:53:31;28.70;47.10
13521;DHT22;6832;51.186;3.236;2022-08-20T16:59:23;28.80;46.90
13521;DHT22;6832;51.186;3.236;2022-08-20T17:02:02;28.70;46.90
13521;DHT22;6832;51.186;3.236;2022-08-20T17:04:33;28.70;46.80
13521;DHT22;6832;51.186;3.236;2022-08-20T17:07:09;28.70;46.90
13521;DHT22;6832;51.186;3.236;2022-08-20T17:09:50;28.70;47.10
13521;DHT22;6832;51.186;3.236;2022-08-20T17:12:26;28.60;47.20
13521;DHT22;6832;51.186;3.236;2022-08-20T17:15:03;28.50;47.10
13521;DHT22;6832;51.186;3.236;2022-08-20T17:17:37;28.50;47.30
13521;DHT22;6832;51.186;3.236;2022-08-20T17:20:11;28.40;47.30
13521;DHT22;6832;51.186;3.236;2022-08-20T17:22:50;28.40;47.30
13521;DHT22;6832;51.186;3.236;2022-08-20T17:25:29;28.30;47.40
13521;DHT22;6832;51.186;3.236;2022-08-20T17:28:16;28.30;47.70
13521;DHT22;6832;51.186;3.236;2022-08-20T17:30:54;28.20;48.10
13521;DHT22;6832;51.186;3.236;2022-08-20T17:33:28;28.10;47.90
13521;DHT22;6832;51.186;3.236;2022-08-20T17:36:20;28.00;47.70
13521;DHT22;6832;51.186;3.236;2022-08-20T17:38:57;28.00;48.00
13521;DHT22;6832;51.186;3.236;2022-08-20T17:41:32;27.90;48.60
13521;DHT22;6832;51.186;3.236;2022-08-20T17:44:05;27.80;48.70
13521;DHT22;6832;51.186;3.236;2022-08-20T17:46:43;27.80;48.70
13521;DHT22;6832;51.186;3.236;2022-08-20T17:49:33;27.70;49.00
13521;DHT22;6832;51.186;3.236;2022-08-20T17:52:05;27.60;49.00
13521;DHT22;6832;51.186;3.236;2022-08-20T17:54:48;27.50;49.00
13521;DHT22;6832;51.186;3.236;2022-08-20T17:57:24;27.50;49.20
13521;DHT22;6832;51.186;3.236;2022-08-20T17:59:56;27.40;49.10